Time;durP1;ratioP1;P1;durP2;ratioP2;P2;SDS_P1;SDS_P2;PMS_P1;PMS_P2;Temp;Humidity;BMP_temperature;BMP_pressure;BME280_temperature;BME280_humidity;BME280_pressure;Samples;Min_cycle;Max_cycle;Signal;HPM_P1;HPM_P2
2023/08/25 00:01:51;;;;;;;21.02;16.45;;;;;;;19.86;100.00;99893.22;4970219;28;20081;-71
2023/08/25 00:04:22;;;;;;;19.15;15.52;;;;;;;20.07;100.00;99919.94;5003403;28;20133;-71
2023/08/25 00:06:54;;;;;;;20.83;15.65;;;;;;;20.04;100.00;99929.13;4990079;28;20042;-72
2023/08/25 00:09:24;;;;;;;18.92;14.95;;;;;;;19.87;100.00;99903.00;4999898;28;20042;-72
2023/08/25 00:11:57;;;;;;;17.87;15.70;;;;;;;20.05;100.00;99920.09;5005023;28;20561;-71
2023/08/25 00:14:29;;;;;;;24.30;18.73;;;;;;;20.00;100.00;99921.50;4992152;28;20073;-71
2023/08/25 00:16:57;;;;;;;18.27;16.02;;;;;;;19.97;100.00;99919.97;5011557;28;20102;-72
2023/08/25 00:19:26;;;;;;;21.23;17.23;;;;;;;20.03;100.00;99926.59;5026475;28;20050;-71
2023/08/25 00:21:55;;;;;;;21.35;17.45;;;;;;;20.02;100.00;99916.81;4970535;28;20050;-71
2023/08/25 00:24:24;;;;;;;24.52;19.33;;;;;;;20.12;100.00;99918.53;4999637;28;20046;-70
2023/08/25 00:26:52;;;;;;;23.53;19.03;;;;;;;20.14;100.00;99903.09;4998789;28;20141;-71
2023/08/25 00:29:22;;;;;;;22.45;18.83;;;;;;;20.28;100.00;99916.09;4993174;28;20045;-70
2023/08/25 00:31:52;;;;;;;22.52;18.40;;;;;;;20.31;100.00;99906.84;4993608;28;20667;-71
2023/08/25 00:34:20;;;;;;;18.30;16.33;;;;;;;20.31;100.00;99909.53;4993893;28;20037;-71
2023/08/25 00:36:48;;;;;;;20.48;16.73;;;;;;;20.30;100.00;99914.06;4989083;28;20518;-69
2023/08/25 00:39:18;;;;;;;24.13;17.45;;;;;;;20.20;100.00;99896.28;5001494;28;20046;-71
2023/08/25 00:41:46;;;;;;;21.15;17.45;;;;;;;20.30;100.00;99891.75;5000667;28;20050;-71
2023/08/25 00:44:15;;;;;;;22.13;17.70;;;;;;;20.35;100.00;99902.88;5009041;28;20502;-71
2023/08/25 00:46:45;;;;;;;22.25;17.73;;;;;;;20.36;100.00;99893.88;5008499;28;20149;-71
2023/08/25 00:49:15;;;;;;;24.73;19.45;;;;;;;20.38;100.00;99889.19;5000133;28;20056;-71
2023/08/25 00:51:47;;;;;;;21.38;17.98;;;;;;;20.32;100.00;99876.28;4985287;28;20502;-71
2023/08/25 00:54:17;;;;;;;25.45;19.83;;;;;;;20.26;100.00;99868.81;4992604;28;20037;-72
2023/08/25 00:56:46;;;;;;;23.75;19.85;;;;;;;20.26;100.00;99868.81;4978141;28;20052;-72
2023/08/25 00:59:15;;;;;;;20.40;18.30;;;;;;;20.27;100.00;99870.53;4979065;28;20054;-71
2023/08/25 01:01:50;;;;;;;26.15;19.73;;;;;;;20.36;100.00;99879.53;4993275;28;20046;-71
2023/08/25 01:04:25;;;;;;;23.75;19.55;;;;;;;20.39;100.00;99877.44;4973129;28;20169;-71
2023/08/25 01:06:57;;;;;;;22.67;19.13;;;;;;;20.37;100.00;99881.25;4988948;28;20048;-71
2023/08/25 01:09:28;;;;;;;24.05;19.63;;;;;;;20.40;100.00;99895.28;4991216;28;20045;-70
2023/08/25 01:12:04;;;;;;;25.85;21.50;;;;;;;20.31;100.00;99888.88;4986716;28;20137;-71
2023/08/25 01:14:46;;;;;;;29.80;24.48;;;;;;;20.32;100.00;99892.41;4985218;28;20608;-72
2023/08/25 01:17:27;;;;;;;28.88;22.92;;;;;;;20.27;100.00;99884.81;5002917;28;20034;-71
2023/08/25 01:20:15;;;;;;;28.27;25.23;;;;;;;20.26;100.00;99883.13;5005284;28;20046;-71
2023/08/25 01:23:01;;;;;;;30.20;26.80;;;;;;;20.17;100.00;99881.28;5000718;28;20054;-70
2023/08/25 01:25:34;;;;;;;34.17;26.42;;;;;;;20.02;100.00;99888.13;4991845;28;20124;-70
2023/08/25 01:28:05;;;;;;;27.75;22.73;;;;;;;20.01;100.00;99899.84;5000868;28;20602;-71
2023/08/25 01:30:35;;;;;;;33.50;27.48;;;;;;;20.05;100.00;99895.03;4995338;28;20136;-70
2023/08/25 01:33:05;;;;;;;36.42;27.45;;;;;;;20.12;100.00;99906.94;4988149;28;20064;-70
2023/08/25 01:35:51;;;;;;;33.63;28.92;;;;;;;20.16;100.00;99908.31;4989896;28;20057;-71
2023/08/25 01:38:25;;;;;;;33.00;27.48;;;;;;;20.08;100.00;99895.59;4990150;28;20038;-70
2023/08/25 01:41:00;;;;;;;35.10;29.15;;;;;;;20.18;100.00;99884.81;5010899;28;20065;-71
2023/08/25 01:43:33;;;;;;;32.47;27.73;;;;;;;20.22;100.00;99878.16;4988707;28;20041;-70
2023/08/25 01:46:02;;;;;;;34.15;27.63;;;;;;;20.16;100.00;99867.97;4989257;28;20069;-71
2023/08/25 01:48:34;;;;;;;35.42;27.88;;;;;;;20.19;100.00;99865.00;5002341;28;20061;-73
2023/08/25 01:51:02;;;;;;;32.22;26.27;;;;;;;20.11;100.00;99846.09;4989117;28;20051;-73
2023/08/25 01:53:31;;;;;;;33.50;26.83;;;;;;;20.12;100.00;99847.78;5001528;28;21919;-70
2023/08/25 01:56:03;;;;;;;34.35;27.05;;;;;;;20.09;100.00;99851.63;4985225;28;20054;-71
2023/08/25 01:58:32;;;;;;;32.58;27.45;;;;;;;20.10;100.00;99853.31;5005618;28;20038;-71
2023/08/25 02:01:00;;;;;;;38.58;30.15;;;;;;;20.18;100.00;99858.78;4988256;28;20046;-71
2023/08/25 02:03:30;;;;;;;;;;;;;;;20.19;100.00;99856.94;4968464;28;20073;-71
2023/08/25 02:06:00;;;;;;;35.47;29.52;;;;;;;20.19;100.00;99859.63;5009170;28;19930;-71
2023/08/25 02:08:31;;;;;;;33.58;28.60;;;;;;;20.15;100.00;99858.22;4993040;28;20524;-71
2023/08/25 02:11:03;;;;;;;32.83;27.88;;;;;;;20.13;100.00;99865.63;4978662;28;20041;-70
2023/08/25 02:13:31;;;;;;;44.50;34.97;;;;;;;20.01;100.00;99872.13;4973811;28;20157;-70
2023/08/25 02:15:59;;;;;;;41.95;32.65;;;;;;;19.93;100.00;99873.72;4990431;28;20056;-70
2023/08/25 02:18:28;;;;;;;47.75;39.25;;;;;;;19.88;100.00;99877.81;4990638;28;20050;-70
2023/08/25 02:21:03;;;;;;;42.05;33.45;;;;;;;19.82;100.00;99878.41;4992462;28;20046;-71
2023/08/25 02:23:31;;;;;;;40.22;33.00;;;;;;;19.74;100.00;99870.19;4955515;28;20076;-71
2023/08/25 02:26:14;;;;;;;41.00;34.13;;;;;;;19.87;100.00;99881.50;4991871;28;20048;-71
2023/08/25 02:28:43;;;;;;;43.22;34.88;;;;;;;19.83;100.00;99870.19;4995210;28;20053;-70
2023/08/25 02:31:14;;;;;;;40.80;34.20;;;;;;;19.93;100.00;99880.94;4997640;28;20445;-70
2023/08/25 02:33:42;;;;;;;45.22;32.38;;;;;;;19.96;100.00;99883.34;5010630;28;20110;-70
2023/08/25 02:36:12;;;;;;;39.70;32.95;;;;;;;19.88;100.00;99861.69;5016263;28;20042;-70
2023/08/25 02:39:06;;;;;;;38.85;31.98;;;;;;;19.93;100.00;99868.34;5015273;28;20364;-71
2023/08/25 02:41:37;;;;;;;40.70;33.92;;;;;;;19.95;100.00;99857.44;5009726;28;20049;-71
2023/08/25 02:44:07;;;;;;;43.30;34.92;;;;;;;19.99;100.00;99844.56;4995990;28;20100;-71
2023/08/25 02:46:37;;;;;;;40.33;33.38;;;;;;;19.95;100.00;99828.75;4986944;28;20174;-71
2023/08/25 02:49:10;;;;;;;40.70;33.42;;;;;;;20.07;100.00;99844.69;4995376;28;20061;-72
2023/08/25 02:51:48;;;;;;;39.88;32.55;;;;;;;20.13;100.00;99838.75;4999878;28;20042;-70
2023/08/25 02:54:16;;;;;;;40.40;32.30;;;;;;;20.20;100.00;99834.44;5000762;28;20107;-71
2023/08/25 02:56:49;;;;;;;35.65;30.98;;;;;;;20.08;100.00;99814.13;5004606;28;20064;-72
2023/08/25 02:59:20;;;;;;;39.03;33.00;;;;;;;20.17;100.00;99830.22;4998335;28;20126;-70
2023/08/25 03:01:55;;;;;;;39.10;33.20;;;;;;;20.17;100.00;99830.22;5018784;28;20049;-70
2023/08/25 03:04:25;;;;;;;43.75;35.83;;;;;;;20.08;100.00;99827.56;4997781;28;20430;-70
2023/08/25 03:06:55;;;;;;;47.28;38.22;;;;;;;19.75;100.00;99792.16;4985528;28;20050;-71
2023/08/25 03:09:24;;;;;;;50.72;38.90;;;;;;;19.82;100.00;99824.69;5020876;28;20042;-72
2023/08/25 03:11:58;;;;;;;52.78;40.65;;;;;;;19.75;100.00;99824.41;5002101;28;20056;-70
2023/08/25 03:14:38;;;;;;;54.92;41.30;;;;;;;19.68;100.00;99815.19;5012759;28;20054;-70
2023/08/25 03:17:06;;;;;;;54.28;40.95;;;;;;;19.67;100.00;99802.78;5012136;28;20124;-71
2023/08/25 03:19:37;;;;;;;56.58;41.65;;;;;;;19.64;100.00;99795.00;5013528;28;20062;-71
2023/08/25 03:22:07;;;;;;;56.53;43.53;;;;;;;19.59;100.00;99791.91;5000204;28;20141;-71
2023/08/25 03:24:36;;;;;;;;;;;;;;;19.54;100.00;99794.16;4976396;28;20049;-71
2023/08/25 03:27:08;;;;;;;57.38;42.65;;;;;;;19.48;100.00;99792.88;5003115;28;20687;-72
2023/08/25 03:29:36;;;;;;;55.88;42.90;;;;;;;19.44;100.00;99794.16;4996799;28;20491;-70
2023/08/25 03:32:05;;;;;;;62.22;44.95;;;;;;;19.41;100.00;99798.97;5000365;28;20041;-70
2023/08/25 03:34:33;;;;;;;65.80;47.35;;;;;;;19.36;100.00;99788.63;4990123;28;20100;-71
2023/08/25 03:37:03;;;;;;;63.08;44.25;;;;;;;19.31;100.00;99782.03;4998107;28;20049;-70
2023/08/25 03:39:35;;;;;;;64.65;46.90;;;;;;;19.14;100.00;99759.44;4992271;28;20141;-70
2023/08/25 03:42:07;;;;;;;64.72;44.83;;;;;;;19.22;100.00;99770.28;4996313;28;21380;-71
2023/08/25 03:44:35;;;;;;;;;;;;;;;19.32;100.00;99799.81;4970790;28;20054;-74
2023/08/25 03:47:09;;;;;;;65.43;44.83;;;;;;;19.33;100.00;99796.16;4993837;28;19925;-71
2023/08/25 03:49:38;;;;;;;70.40;46.03;;;;;;;19.36;100.00;99785.13;5007601;28;20052;-71
2023/08/25 03:52:07;;;;;;;66.82;44.33;;;;;;;19.27;100.00;99749.25;4974187;28;20046;-71
2023/08/25 03:54:40;;;;;;;55.85;39.78;;;;;;;19.29;100.00;99755.31;4992070;28;20030;-70
2023/08/25 03:57:11;;;;;;;68.68;45.22;;;;;;;19.41;100.00;99769.41;4992465;28;20046;-70
2023/08/25 03:59:40;;;;;;;65.03;44.20;;;;;;;19.40;100.00;99751.63;5013648;28;20138;-71
2023/08/25 04:02:09;;;;;;;64.70;42.38;;;;;;;19.42;100.00;99750.50;4983696;28;20053;-70
2023/08/25 04:04:40;;;;;;;;;;;;;;;19.44;100.00;99744.97;5013114;28;20086;-70
2023/08/25 04:07:09;;;;;;;57.65;39.55;;;;;;;19.44;100.00;99748.50;5012034;28;19925;-71
2023/08/25 04:09:54;;;;;;;60.10;41.00;;;;;;;19.39;100.00;99731.97;4996170;28;20054;-71
2023/08/25 04:12:35;;;;;;;52.85;35.88;;;;;;;19.14;100.00;99687.81;4989282;28;20058;-70
2023/08/25 04:15:04;;;;;;;55.80;38.15;;;;;;;19.43;100.00;99737.91;4972302;28;20046;-71
2023/08/25 04:17:34;;;;;;;62.30;41.83;;;;;;;19.43;100.00;99744.13;5005433;28;20044;-71
2023/08/25 04:20:03;;;;;;;49.90;37.28;;;;;;;19.50;100.00;99749.81;4986814;28;20498;-71
2023/08/25 04:22:33;;;;;;;58.17;38.90;;;;;;;19.46;100.00;99748.38;4996201;28;20039;-71
2023/08/25 04:25:02;;;;;;;53.28;36.35;;;;;;;19.46;100.00;99743.84;5015760;28;20145;-71
2023/08/25 04:27:31;;;;;;;52.58;33.58;;;;;;;19.50;100.00;99744.44;5004151;28;20056;-71
2023/08/25 04:30:00;;;;;;;52.30;34.58;;;;;;;19.46;100.00;99733.09;4981111;28;20201;-72
2023/08/25 04:32:28;;;;;;;55.53;37.47;;;;;;;19.58;100.00;99745.41;4981984;28;20490;-71
2023/08/25 04:34:58;;;;;;;62.75;39.58;;;;;;;19.64;100.00;99761.94;4989291;28;20101;-71
2023/08/25 04:37:26;;;;;;;63.88;41.13;;;;;;;19.57;100.00;99772.41;4998055;28;20552;-70
2023/08/25 04:39:56;;;;;;;64.72;40.30;;;;;;;19.52;100.00;99761.22;5000438;28;20041;-70
2023/08/25 04:42:26;;;;;;;58.90;40.05;;;;;;;19.53;100.00;99771.81;4997093;28;20037;-70
2023/08/25 04:44:54;;;;;;;59.22;39.47;;;;;;;19.54;100.00;99772.69;4990076;28;20057;-70
2023/08/25 04:47:27;;;;;;;65.88;40.75;;;;;;;19.57;100.00;99780.44;4992796;28;20490;-70
2023/08/25 04:49:57;;;;;;;63.78;42.17;;;;;;;19.57;100.00;99800.09;4990141;28;20241;-71
2023/08/25 04:52:34;;;;;;;60.47;42.22;;;;;;;19.54;100.00;99813.81;4991819;28;20518;-70
2023/08/25 04:55:04;;;;;;;49.80;34.92;;;;;;;19.62;100.00;99834.59;4986957;28;20045;-70
2023/08/25 04:57:34;;;;;;;55.35;37.22;;;;;;;19.74;100.00;99833.44;5003724;28;20038;-70
2023/08/25 05:00:05;;;;;;;56.80;38.53;;;;;;;19.80;100.00;99800.63;4974195;28;20053;-70
2023/08/25 05:02:37;;;;;;;64.25;39.95;;;;;;;19.98;100.00;99754.19;4987748;28;20498;-71
2023/08/25 05:05:11;;;;;;;67.70;42.95;;;;;;;20.08;100.00;99733.50;4979200;28;20475;-70
2023/08/25 05:07:43;;;;;;;70.55;44.67;;;;;;;20.19;100.00;99746.72;4989745;28;20499;-69
2023/08/25 05:10:12;;;;;;;79.97;48.88;;;;;;;20.15;100.00;99737.25;4987127;28;20125;-69
2023/08/25 05:12:44;;;;;;;67.40;44.15;;;;;;;20.09;100.00;99729.81;4988305;28;20593;-70
2023/08/25 05:15:13;;;;;;;74.13;46.13;;;;;;;20.14;100.00;99743.66;4997924;28;20070;-70
2023/08/25 05:17:55;;;;;;;82.55;48.97;;;;;;;20.07;100.00;99751.47;4992026;28;20037;-71
2023/08/25 05:20:24;;;;;;;78.20;45.15;;;;;;;20.10;100.00;99758.38;4989143;28;20042;-72
2023/08/25 05:22:53;;;;;;;72.63;45.83;;;;;;;20.13;100.00;99763.47;4989933;28;20054;-70
2023/08/25 05:25:23;;;;;;;74.00;45.08;;;;;;;20.18;100.00;99762.00;4983556;28;20596;-71
2023/08/25 05:27:51;;;;;;;72.40;44.00;;;;;;;20.26;100.00;99750.53;4990707;28;20066;-70
2023/08/25 05:30:22;;;;;;;70.22;43.13;;;;;;;20.28;100.00;99765.53;5010731;28;20183;-71
2023/08/25 05:32:52;;;;;;;71.68;44.55;;;;;;;20.29;100.00;99774.44;4997521;28;20042;-70
2023/08/25 05:35:32;;;;;;;67.07;42.43;;;;;;;20.30;100.00;99770.75;4999334;28;20085;-70
2023/08/25 05:38:02;;;;;;;56.33;39.33;;;;;;;20.39;100.00;99780.63;5008017;28;20041;-72
2023/08/25 05:40:30;;;;;;;51.42;35.70;;;;;;;20.42;100.00;99774.97;4988151;28;20052;-71
2023/08/25 05:42:59;;;;;;;50.85;36.55;;;;;;;20.48;100.00;99795.00;5005152;28;20038;-70
2023/08/25 05:45:27;;;;;;;49.50;35.47;;;;;;;20.43;100.00;99810.75;4982065;28;20053;-71
2023/08/25 05:47:56;;;;;;;54.40;37.33;;;;;;;20.29;100.00;99823.69;5007154;28;20174;-71
2023/08/25 05:50:24;;;;;;;62.58;40.33;;;;;;;20.15;100.00;99823.28;5015454;28;20038;-70
2023/08/25 05:52:56;;;;;;;63.73;41.13;;;;;;;20.10;100.00;99823.75;5011606;28;20034;-71
2023/08/25 05:55:26;;;;;;;60.13;38.45;;;;;;;20.07;100.00;99821.34;5005900;28;20599;-71
2023/08/25 05:57:54;;;;;;;55.08;36.70;;;;;;;20.10;100.00;99834.50;4970711;28;20112;-71
2023/08/25 06:00:24;;;;;;;59.65;41.65;;;;;;;20.02;100.00;99831.69;4987430;28;20425;-71
2023/08/25 06:02:52;;;;;;;61.95;40.80;;;;;;;20.07;100.00;99858.13;5008218;28;20034;-71
2023/08/25 06:05:20;;;;;;;64.97;42.33;;;;;;;20.03;100.00;99867.47;5000403;28;20045;-71
2023/08/25 06:07:49;;;;;;;68.10;43.15;;;;;;;19.97;100.00;99863.53;4991809;28;20049;-70
2023/08/25 06:10:26;;;;;;;70.65;42.40;;;;;;;19.95;100.00;99866.38;4997067;28;20473;-71
2023/08/25 06:12:57;;;;;;;57.28;36.30;;;;;;;19.96;100.00;99837.66;4990493;28;20046;-70
2023/08/25 06:15:29;;;;;;;59.60;38.15;;;;;;;19.79;100.00;99831.19;4981841;28;20053;-70
2023/08/25 06:17:59;;;;;;;56.15;33.85;;;;;;;19.84;100.00;99844.16;5005265;28;20721;-71
2023/08/25 06:20:27;;;;;;;63.72;39.38;;;;;;;19.80;100.00;99845.47;4972534;28;20049;-71
2023/08/25 06:22:55;;;;;;;68.18;40.38;;;;;;;19.71;100.00;99819.44;4973068;28;20056;-71
2023/08/25 06:25:25;;;;;;;73.78;43.05;;;;;;;19.75;100.00;99829.75;4981876;28;20081;-72
2023/08/25 06:27:55;;;;;;;75.60;41.50;;;;;;;19.55;100.00;99791.34;4990698;28;20047;-71
2023/08/25 06:30:27;;;;;;;;;;;;;;;19.74;100.00;99814.63;5005351;28;20095;-72
2023/08/25 06:32:56;;;;;;;71.53;41.10;;;;;;;19.76;100.00;99831.47;4986648;28;19922;-70
2023/08/25 06:35:29;;;;;;;69.30;41.95;;;;;;;19.84;100.00;99828.03;4981125;28;20065;-71
2023/08/25 06:38:03;;;;;;;72.30;43.13;;;;;;;19.84;100.00;99823.50;5003769;28;20054;-70
2023/08/25 06:40:36;;;;;;;63.60;38.58;;;;;;;19.89;100.00;99826.63;4995134;28;20149;-72
2023/08/25 06:43:05;;;;;;;56.70;38.00;;;;;;;19.98;100.00;99813.31;4988010;28;20050;-71
2023/08/25 06:45:34;;;;;;;59.25;38.85;;;;;;;20.17;100.00;99823.97;4985405;28;20224;-71
2023/08/25 06:48:02;;;;;;;53.97;36.55;;;;;;;20.30;100.00;99819.16;4992370;28;20140;-72
2023/08/25 06:50:31;;;;;;;51.20;35.88;;;;;;;20.31;100.00;99802.00;4991163;28;20060;-72
2023/08/25 06:53:00;;;;;;;54.08;36.95;;;;;;;20.41;100.00;99791.25;4984932;28;20046;-72
2023/08/25 06:55:28;;;;;;;50.10;34.47;;;;;;;20.46;100.00;99794.34;4981654;28;20049;-72
2023/08/25 06:58:00;;;;;;;43.40;32.10;;;;;;;20.22;100.00;99736.53;4986260;28;20246;-69
2023/08/25 07:00:29;;;;;;;40.90;30.90;;;;;;;20.71;100.00;99772.09;5008146;28;20101;-73
2023/08/25 07:02:57;;;;;;;39.13;29.63;;;;;;;20.75;100.00;99764.56;4985637;28;20125;-72
2023/08/25 07:05:26;;;;;;;43.10;29.38;;;;;;;20.82;100.00;99776.41;4978553;28;20056;-71
2023/08/25 07:07:56;;;;;;;38.95;28.98;;;;;;;20.79;100.00;99785.63;4985119;28;20045;-71
2023/08/25 07:10:25;;;;;;;35.50;28.40;;;;;;;20.68;100.00;99791.22;5003029;28;20565;-70
2023/08/25 07:12:53;;;;;;;39.45;29.45;;;;;;;20.61;100.00;99804.44;5001115;28;20141;-71
2023/08/25 07:15:25;;;;;;;38.13;30.07;;;;;;;20.57;100.00;99808.44;5003974;28;20052;-72
2023/08/25 07:17:53;;;;;;;40.30;31.10;;;;;;;20.45;100.00;99780.03;5000258;28;20484;-70
2023/08/25 07:20:24;;;;;;;42.45;30.35;;;;;;;20.63;100.00;99793.50;4988164;28;20506;-71
2023/08/25 07:22:52;;;;;;;40.20;30.92;;;;;;;20.61;100.00;99785.63;4987590;28;20062;-71
2023/08/25 07:25:20;;;;;;;42.78;31.58;;;;;;;20.60;100.00;99780.38;4972916;28;20045;-75
2023/08/25 07:27:48;;;;;;;38.80;30.65;;;;;;;20.53;100.00;99793.56;4995896;28;20488;-73
2023/08/25 07:30:17;;;;;;;38.47;30.25;;;;;;;20.57;100.00;99794.97;4991821;28;20122;-72
2023/08/25 07:32:55;;;;;;;32.17;27.10;;;;;;;20.61;100.00;99822.44;4995863;28;20049;-73
2023/08/25 07:35:25;;;;;;;37.03;28.20;;;;;;;20.77;100.00;99797.56;4987979;28;20096;-72
2023/08/25 07:37:56;;;;;;;36.00;27.42;;;;;;;21.02;100.00;99812.94;4992873;28;20496;-74
2023/08/25 07:40:26;;;;;;;32.78;25.85;;;;;;;21.08;100.00;99803.44;4994809;28;20060;-76
2023/08/25 07:42:59;;;;;;;28.95;23.85;;;;;;;21.34;100.00;99828.59;5010716;28;20072;-75
2023/08/25 07:45:28;;;;;;;31.33;24.20;;;;;;;21.50;100.00;99820.66;5006450;28;21366;-73
2023/08/25 07:47:59;;;;;;;27.77;23.15;;;;;;;21.56;100.00;99817.38;4983657;28;20128;-73
2023/08/25 07:50:29;;;;;;;29.90;22.75;;;;;;;21.65;100.00;99831.72;4999263;28;20050;-75
2023/08/25 07:52:58;;;;;;;29.20;22.83;;;;;;;21.58;100.00;99812.63;5005400;28;20041;-74
2023/08/25 07:55:28;;;;;;;39.13;31.05;;;;;;;21.67;100.00;99811.72;5019942;28;20117;-76
2023/08/25 07:57:57;;;;;;;23.42;19.88;;;;;;;21.62;100.00;99775.44;5007283;28;20042;-74
2023/08/25 08:00:28;;;;;;;21.17;17.92;;;;;;;21.90;100.00;99811.19;5002950;28;20045;-72
2023/08/25 08:02:57;;;;;;;22.90;17.85;;;;;;;22.02;100.00;99815.34;5009937;28;20050;-72
2023/08/25 08:05:26;;;;;;;22.55;16.60;;;;;;;21.96;100.00;99813.25;5002137;28;20129;-73
2023/08/25 08:07:54;;;;;;;20.58;16.42;;;;;;;22.01;100.00;99803.72;4989131;28;20068;-75
2023/08/25 08:10:25;;;;;;;20.52;17.00;;;;;;;22.20;100.00;99813.41;4993606;28;20049;-69
2023/08/25 08:12:54;;;;;;;18.20;15.70;;;;;;;22.52;100.00;99811.88;4994353;28;20033;-70
2023/08/25 08:15:22;;;;;;;16.30;13.43;;;;;;;22.91;100.00;99806.81;4988528;28;20524;-70
2023/08/25 08:17:51;;;;;;;14.27;12.05;;;;;;;22.83;100.00;99802.22;4974037;28;20073;-71
2023/08/25 08:20:23;;;;;;;13.98;11.25;;;;;;;22.90;100.00;99811.38;4996395;28;20042;-70
2023/08/25 08:22:52;;;;;;;12.57;10.63;;;;;;;23.04;100.00;99802.63;4993842;28;20041;-70
2023/08/25 08:25:24;;;;;;;13.63;10.02;;;;;;;23.33;100.00;99812.09;4988329;28;20049;-73
2023/08/25 08:27:52;;;;;;;12.45;9.15;;;;;;;23.66;100.00;99818.41;4990016;28;20054;-70
2023/08/25 08:30:22;;;;;;;12.93;9.02;;;;;;;23.88;100.00;99820.41;4986543;28;20058;-71
2023/08/25 08:32:51;;;;;;;10.55;9.13;;;;;;;23.97;100.00;99818.53;4989607;28;20143;-72
2023/08/25 08:35:20;;;;;;;9.10;6.65;;;;;;;24.01;100.00;99830.69;4982501;28;20049;-72
2023/08/25 08:37:50;;;;;;;10.67;7.57;;;;;;;24.34;100.00;99817.97;5001016;28;20635;-71
2023/08/25 08:40:20;;;;;;;10.93;6.90;;;;;;;24.50;100.00;99817.91;4974889;28;20050;-72
2023/08/25 08:42:53;;;;;;;8.80;6.30;;;;;;;24.55;100.00;99814.69;4995805;28;20578;-71
2023/08/25 08:45:24;;;;;;;11.52;5.45;;;;;;;24.44;100.00;99826.72;5004585;28;20046;-71
2023/08/25 08:47:52;;;;;;;;;;;;;;;24.13;100.00;99840.13;4990527;28;20073;-73
2023/08/25 08:50:21;;;;;;;7.05;5.05;;;;;;;24.14;100.00;99842.66;4992381;28;19925;-72
2023/08/25 08:52:51;;;;;;;7.00;5.20;;;;;;;24.30;100.00;99832.84;5010846;28;20050;-71
2023/08/25 08:55:21;;;;;;;7.05;5.07;;;;;;;24.44;100.00;99832.13;4994394;28;20054;-72
2023/08/25 08:57:51;;;;;;;7.43;4.95;;;;;;;24.36;100.00;99826.75;4990105;28;20056;-72
2023/08/25 09:00:20;;;;;;;7.10;5.50;;;;;;;24.27;100.00;99835.91;4994929;28;20065;-71
2023/08/25 09:02:51;;;;;;;10.30;5.32;;;;;;;24.20;100.00;99840.28;4994470;28;20070;-72
2023/08/25 09:05:27;;;;;;;7.55;4.57;;;;;;;24.43;100.00;99843.97;4996349;28;20687;-72
2023/08/25 09:08:08;;;;;;;8.52;4.95;;;;;;;24.81;100.00;99858.53;5021374;28;20044;-72
2023/08/25 09:10:39;;;;;;;7.47;4.68;;;;;;;24.74;100.00;99852.13;5001576;28;20072;-72
2023/08/25 09:13:07;;;;;;;;;;;;;;;24.56;100.00;99875.88;5007574;28;20396;-72
2023/08/25 09:15:37;;;;;;;6.32;4.32;;;;;;;24.19;100.00;99852.13;5007464;28;19989;-72
2023/08/25 09:18:09;;;;;;;8.93;4.55;;;;;;;23.86;100.00;99879.22;5005439;28;20117;-72
2023/08/25 09:20:38;;;;;;;;;;;;;;;23.87;100.00;99875.50;5010527;28;20049;-73
2023/08/25 09:23:09;;;;;;;7.25;4.45;;;;;;;24.12;100.00;99863.63;5006269;28;19922;-71
2023/08/25 09:25:44;;;;;;;8.93;4.70;;;;;;;24.46;100.00;99860.72;5005479;28;20041;-72
2023/08/25 09:28:25;;;;;;;10.13;4.17;;;;;;;24.72;100.00;99844.19;5007928;28;20026;-72
2023/08/25 09:30:54;;;;;;;9.85;4.60;;;;;;;24.76;100.00;99850.94;5025350;28;20145;-71
2023/08/25 09:33:22;;;;;;;9.55;4.60;;;;;;;24.63;100.00;99853.38;5003363;28;20046;-71
2023/08/25 09:35:52;;;;;;;6.25;4.60;;;;;;;24.38;100.00;99847.22;4996835;28;20057;-71
2023/08/25 09:38:22;;;;;;;;;;;;;;;24.32;100.00;99838.94;4978346;28;20097;-71
2023/08/25 09:40:51;;;;;;;8.83;4.60;;;;;;;24.33;100.00;99808.16;5013901;28;20342;-72
2023/08/25 09:43:29;;;;;;;7.40;4.18;;;;;;;24.71;100.00;99842.50;4992351;28;20137;-72
2023/08/25 09:45:59;;;;;;;5.80;4.15;;;;;;;24.98;100.00;99837.69;4986228;28;20060;-72
2023/08/25 09:48:34;;;;;;;7.03;4.80;;;;;;;25.11;100.00;99821.69;4989371;28;20141;-72
2023/08/25 09:51:03;;;;;;;8.65;4.03;;;;;;;25.02;100.00;99822.75;4992494;28;20050;-72
2023/08/25 09:53:34;;;;;;;6.90;4.20;;;;;;;24.88;100.00;99821.59;4991495;28;20046;-72
2023/08/25 09:56:05;;;;;;;7.63;4.38;;;;;;;24.95;100.00;99791.97;4984215;28;20568;-72
2023/08/25 09:58:35;;;;;;;8.65;4.32;;;;;;;25.25;100.00;99785.66;4988275;28;20117;-72
2023/08/25 10:01:04;;;;;;;;;;;;;;;25.47;100.00;99778.56;5010801;28;20046;-72
2023/08/25 10:03:32;;;;;;;7.25;4.05;;;;;;;25.65;100.00;99767.41;5008636;28;19926;-72
2023/08/25 10:06:02;;;;;;;5.80;3.90;;;;;;;25.75;100.00;99755.28;4989771;28;20492;-72
2023/08/25 10:08:32;;;;;;;5.20;3.50;;;;;;;25.87;100.00;99761.06;4988548;28;20053;-72
2023/08/25 10:11:03;;;;;;;5.93;4.20;;;;;;;26.03;100.00;99750.03;5011077;28;20053;-71
2023/08/25 10:13:34;;;;;;;7.20;3.85;;;;;;;26.20;100.00;99727.13;5013734;28;20054;-72
2023/08/25 10:16:04;;;;;;;4.97;3.75;;;;;;;26.52;100.00;99744.03;5010142;28;20501;-73
2023/08/25 10:18:39;;;;;;;5.97;3.90;;;;;;;26.57;100.00;99738.06;4988070;28;20054;-72
2023/08/25 10:21:11;;;;;;;5.40;3.90;;;;;;;26.92;100.00;99725.50;4990459;28;20110;-73
2023/08/25 10:23:40;;;;;;;5.00;3.10;;;;;;;27.09;100.00;99722.31;4991469;28;20045;-72
2023/08/25 10:26:10;;;;;;;5.00;3.10;;;;;;;26.97;100.00;99729.31;4995497;28;20050;-72
2023/08/25 10:28:39;;;;;;;4.50;3.40;;;;;;;26.65;100.00;99722.47;4989395;28;20057;-72
2023/08/25 10:31:09;;;;;;;3.85;3.55;;;;;;;26.23;100.00;99722.34;5011283;28;20130;-74
2023/08/25 10:33:46;;;;;;;5.28;3.70;;;;;;;25.88;100.00;99735.63;5011644;28;20050;-72
2023/08/25 10:36:19;;;;;;;4.68;3.00;;;;;;;25.72;100.00;99716.81;4997170;28;20109;-74
2023/08/25 10:39:03;;;;;;;6.00;3.50;;;;;;;25.84;100.00;99731.59;4977416;28;20046;-72
2023/08/25 10:41:41;;;;;;;3.35;3.05;;;;;;;25.94;100.00;99723.22;4995847;28;20042;-73
2023/08/25 10:44:13;;;;;;;4.70;3.28;;;;;;;26.02;100.00;99704.09;4992528;28;20065;-72
2023/08/25 10:46:46;;;;;;;5.13;3.28;;;;;;;26.16;100.00;99717.66;4989689;28;20121;-72
2023/08/25 10:49:17;;;;;;;5.90;3.03;;;;;;;26.14;100.00;99717.00;4989938;28;20047;-72
2023/08/25 10:51:45;;;;;;;5.53;3.00;;;;;;;25.89;100.00;99702.06;5010133;28;20379;-73
2023/08/25 10:54:19;;;;;;;3.72;3.00;;;;;;;25.84;100.00;99688.22;4994811;28;20085;-73
2023/08/25 10:56:53;;;;;;;5.65;3.08;;;;;;;26.03;100.00;99693.06;4991183;28;20046;-74
2023/08/25 10:59:23;;;;;;;4.50;3.13;;;;;;;26.38;100.00;99701.47;5005222;28;20046;-72
2023/08/25 11:01:59;;;;;;;7.25;3.53;;;;;;;26.61;100.00;99698.59;4996851;28;20065;-72
2023/08/25 11:04:29;;;;;;;5.95;3.50;;;;;;;26.85;100.00;99704.50;4991670;28;20046;-72
2023/08/25 11:06:58;;;;;;;4.65;2.90;;;;;;;26.97;100.00;99694.00;4986145;28;20157;-75
2023/08/25 11:09:32;;;;;;;5.00;3.00;;;;;;;27.22;100.00;99699.88;5003753;28;20142;-72
2023/08/25 11:12:06;;;;;;;4.97;2.90;;;;;;;27.23;100.00;99696.13;5010620;28;20050;-73
2023/08/25 11:14:37;;;;;;;5.72;3.10;;;;;;;27.34;98.47;99700.19;4992380;28;20054;-73
2023/08/25 11:17:08;;;;;;;3.72;3.08;;;;;;;27.52;97.06;99704.09;4977081;28;20046;-72
2023/08/25 11:19:39;;;;;;;3.25;2.72;;;;;;;27.51;93.57;99702.41;5015122;28;20492;-73
2023/08/25 11:22:10;;;;;;;3.50;2.50;;;;;;;27.55;94.75;99706.41;4996108;28;20054;-73
2023/08/25 11:24:40;;;;;;;3.67;2.65;;;;;;;27.37;97.60;99706.06;4998067;28;20062;-73
2023/08/25 11:27:10;;;;;;;3.97;2.70;;;;;;;27.29;94.08;99678.16;4992618;28;20526;-73
2023/08/25 11:29:44;;;;;;;3.22;2.40;;;;;;;27.34;94.07;99692.88;4995308;28;20054;-73
2023/08/25 11:32:15;;;;;;;6.63;2.72;;;;;;;27.64;91.25;99714.47;4999193;28;20049;-71
2023/08/25 11:34:46;;;;;;;3.28;2.90;;;;;;;27.78;89.79;99705.34;5023247;28;20311;-73